Barry Silverton — WDI2338 — position and weather

sailwx.info

Track history (hours):
 
Tides and Currents Weather Stations Pressure Air Temp Water Temp Dewpoint Dewpoint Depression Visibility Wind Speed Wind Dir Waves Ship Positions

Barry Silverton

Owner: Harley Marine Services, Inc, Seattle, WA. More information available from US FCC via Universal Licensing System and Coast Guard Vessel Documentation Center.

Last reported at 2018-Feb-18 23:58 UTC. Time now 2018-Feb-19 00:10 UTC.
Position N 40°36' W 074°12'.

Length 178 m; draft 4.3 m.

Type: Ship. MMSI: 367677130.

Date/timePositionNaut miles runAvg speedWind from/ knotsBaromVisibWave heightAir tempDewpointWater temp
2018-Feb-18 23:58N 40°36' W 074°12'0 0.0
2018-Feb-18 23:28N 40°36' W 074°12'0 0.0
2018-Feb-18 22:59N 40°36' W 074°12'0 0.0
2018-Feb-18 22:27N 40°36' W 074°12'0 0.0
2018-Feb-18 22:00N 40°36' W 074°12'0 0.0
2018-Feb-18 21:30N 40°36' W 074°12'0 0.0
2018-Feb-18 21:00N 40°36' W 074°12'0 0.0
2018-Feb-18 20:30N 40°36' W 074°12'0 0.0
2018-Feb-18 19:59N 40°36' W 074°12'0 0.0
2018-Feb-18 19:29N 40°36' W 074°12'0 0.0
2018-Feb-18 19:00N 40°36' W 074°12'0 0.0
2018-Feb-18 18:30N 40°36' W 074°12'0 0.1
2018-Feb-18 18:00N 40°36' W 074°12'3 5.3
2018-Feb-18 17:30N 40°39' W 074°11'4 8.5
2018-Feb-18 17:00N 40°39' W 074°06'5 9.2
2018-Feb-18 16:30N 40°41' W 074°01'4 7.5
2018-Feb-18 16:00N 40°45' W 073°58'4 7.5
2018-Feb-18 15:30N 40°47' W 073°55'3 5.2
2018-Feb-18 15:00N 40°48' W 073°52'3 6.4
2018-Feb-18 14:30N 40°48' W 073°47'4 8.0
2018-Feb-18 13:59N 40°52' W 073°45'4 7.8
2018-Feb-18 13:29N 40°54' W 073°41'4 7.6
2018-Feb-18 12:55N 40°56' W 073°36'41 6.4
2018-Feb-18 06:34N 41°06' W 072°44'2 6.3
2018-Feb-18 06:17N 41°07' W 072°41'2 6.4
2018-Feb-18 06:00N 41°07' W 072°39'4 6.1
2018-Feb-18 05:25N 41°08' W 072°34'3 6.8
2018-Feb-18 05:00N 41°08' W 072°31'4 7.2
2018-Feb-18 04:30N 41°09' W 072°26'4 8.7
2018-Feb-18 04:00N 41°11' W 072°21'5 9.5
2018-Feb-18 03:30N 41°13' W 072°15'612.0
2018-Feb-18 03:00N 41°14' W 072°07'90 7.7
2018-Feb-17 15:27N 42°12' W 070°36'3 7.7
2018-Feb-17 15:00N 42°15' W 070°39'4 7.6
2018-Feb-17 14:30N 42°18' W 070°42'4 7.3
2018-Feb-17 14:00N 42°19' W 070°46'4 7.5
2018-Feb-17 13:30N 42°19' W 070°52'3 6.0
2018-Feb-17 12:57N 42°18' W 070°55'3 7.5
2018-Feb-17 12:30N 42°15' W 070°58'1 1.1
2018-Feb-17 11:51N 42°14' W 070°58'0 0.0
2018-Feb-17 04:16N 42°14' W 070°58'0 0.0
2018-Feb-17 00:27N 42°14' W 070°58'0 0.0
2018-Feb-16 21:28N 42°14' W 070°58'0 0.0
2018-Feb-16 20:52N 42°14' W 070°58'0 0.0
2018-Feb-16 20:27N 42°14' W 070°58'0 0.0
2018-Feb-16 19:59N 42°14' W 070°58'0 0.0
2018-Feb-16 19:26N 42°14' W 070°58'0 0.0
2018-Feb-16 18:58N 42°14' W 070°58'0 0.0
2018-Feb-16 18:24N 42°14' W 070°58'0 0.0
2018-Feb-16 17:44N 42°14' W 070°58'0 0.0
2018-Feb-16 17:25N 42°14' W 070°58'0 0.0
2018-Feb-16 16:56N 42°14' W 070°58'0 0.0
2018-Feb-16 16:29N 42°14' W 070°58'0 0.0
2018-Feb-16 16:00N 42°14' W 070°58'0 0.0
2018-Feb-16 15:30N 42°14' W 070°58'0 0.0
2018-Feb-16 15:00N 42°14' W 070°58'0 0.0
2018-Feb-16 14:30N 42°14' W 070°58'0 0.0
2018-Feb-16 13:59N 42°14' W 070°58'0 0.0
2018-Feb-16 13:29N 42°14' W 070°58'0 0.0
2018-Feb-16 13:00N 42°14' W 070°58'0 0.0
2018-Feb-16 08:58N 42°14' W 070°58'0 0.0
2018-Feb-16 08:30N 42°14' W 070°58'0 0.0
2018-Feb-16 07:59N 42°14' W 070°58'0 0.0
2018-Feb-16 07:30N 42°14' W 070°58'0 0.0
2018-Feb-16 06:56N 42°14' W 070°58'0 0.0
2018-Feb-16 06:24N 42°14' W 070°58'0 0.0
2018-Feb-16 05:56N 42°14' W 070°58'0 0.0
2018-Feb-16 05:29N 42°14' W 070°58'0 0.0
2018-Feb-16 04:44N 42°14' W 070°58'0 0.0
2018-Feb-16 04:29N 42°14' W 070°58'0 0.0
2018-Feb-16 04:00N 42°14' W 070°58'0 0.0
2018-Feb-16 03:20N 42°14' W 070°58'0 0.0
2018-Feb-16 03:00N 42°14' W 070°58'0 0.0
2018-Feb-16 02:17N 42°14' W 070°58'0 0.0
2018-Feb-16 01:55N 42°14' W 070°58'0 0.0
2018-Feb-16 01:24N 42°14' W 070°58'0 0.0
2018-Feb-16 01:00N 42°14' W 070°58'0 0.0
2018-Feb-16 00:30N 42°14' W 070°58'0 0.0
2018-Feb-16 00:00N 42°14' W 070°58'0 0.0
2018-Feb-15 22:22N 42°14' W 070°58'0 0.0
2018-Feb-15 21:53N 42°14' W 070°58'0 0.0
2018-Feb-15 21:30N 42°14' W 070°58'0 0.0
2018-Feb-15 20:41N 42°14' W 070°58'0 0.0
2018-Feb-15 20:24N 42°14' W 070°58'0 0.0
2018-Feb-15 19:36N 42°14' W 070°58'0 0.0
2018-Feb-15 19:22N 42°14' W 070°58'0 0.0
2018-Feb-15 18:59N 42°14' W 070°58'0 0.0
2018-Feb-15 18:30N 42°14' W 070°58'0 0.0
2018-Feb-15 17:55N 42°14' W 070°58'0 0.0
2018-Feb-15 17:30N 42°14' W 070°58'0 0.0
2018-Feb-15 16:38N 42°14' W 070°58'0 0.0
2018-Feb-15 16:24N 42°14' W 070°58'0 0.0
2018-Feb-15 15:22N 42°14' W 070°58'0 0.0
2018-Feb-15 14:58N 42°14' W 070°58'3 1.7
2018-Feb-15 13:18N 42°16' W 070°56'1 2.8
2018-Feb-15 13:00N 42°17' W 070°56'2 3.5
2018-Feb-15 12:25N 42°19' W 070°54'3 6.2
2018-Feb-15 11:59N 42°20' W 070°51'0 0.2
2018-Feb-15 11:25N 42°20' W 070°51'0 0.0
2018-Feb-15 09:13N 42°20' W 070°51'0 0.0
2018-Feb-15 08:50N 42°20' W 070°51'0 0.1
2018-Feb-15 08:30N 42°20' W 070°51'0 0.0
2018-Feb-15 08:00N 42°20' W 070°51'0 0.0
2018-Feb-15 07:30N 42°20' W 070°51'0 0.0
2018-Feb-15 03:56N 42°20' W 070°51'0 0.1
2018-Feb-15 03:30N 42°20' W 070°51'0 0.0
2018-Feb-15 03:00N 42°20' W 070°51'0 0.0
2018-Feb-15 02:30N 42°20' W 070°51'0 0.1
2018-Feb-15 02:00N 42°20' W 070°51'0 0.1
2018-Feb-15 01:15N 42°20' W 070°51'0 0.1
2018-Feb-15 00:53N 42°20' W 070°51'0 0.1
2018-Feb-15 00:28N 42°20' W 070°51'0 0.4
2018-Feb-14 23:58N 42°20' W 070°51'4 7.9
2018-Feb-14 23:30N 42°19' W 070°46'5 9.7
2018-Feb-14 23:00N 42°16' W 070°40'5 9.6
2018-Feb-14 22:27N 42°12' W 070°35'4 9.6
2018-Feb-14 22:00N 42°09' W 070°33'90 7.2
2018-Feb-14 09:36N 41°14' W 072°07'1 9.7
2018-Feb-14 09:30N 41°14' W 072°08'5 9.9
2018-Feb-14 09:00N 41°13' W 072°15'611.4
2018-Feb-14 08:30N 41°11' W 072°22'611.4
2018-Feb-14 08:00N 41°09' W 072°29'510.9
2018-Feb-14 07:30N 41°08' W 072°36'510.8
2018-Feb-14 07:00N 41°06' W 072°43'48 9.9
2018-Feb-14 02:06N 40°52' W 073°44'1 9.6
2018-Feb-14 02:00N 40°51' W 073°45'4 8.2
2018-Feb-14 01:30N 40°48' W 073°48'5 9.1
2018-Feb-14 01:00N 40°48' W 073°55'4 9.0
2018-Feb-14 00:30N 40°44' W 073°58'4 7.8
2018-Feb-14 00:00N 40°41' W 074°01'4 7.5
2018-Feb-13 23:30N 40°38' W 074°03'0 0.4
2018-Feb-13 23:00N 40°38' W 074°04'0 0.2
2018-Feb-13 22:30N 40°38' W 074°03'0 0.0
2018-Feb-13 22:00N 40°38' W 074°03'0 0.1
2018-Feb-13 21:30N 40°38' W 074°03'0 0.1
2018-Feb-13 21:00N 40°38' W 074°03'2 3.1
2018-Feb-13 20:30N 40°39' W 074°04'3 6.4
2018-Feb-13 20:00N 40°38' W 074°09'3 6.4
2018-Feb-13 19:29N 40°37' W 074°12'1 0.4
2018-Feb-13 17:54N 40°36' W 074°12'0 0.0
2018-Feb-13 17:29N 40°36' W 074°12'0 0.0
2018-Feb-13 16:57N 40°36' W 074°12'0 0.0
2018-Feb-13 16:29N 40°36' W 074°12'0 0.0
2018-Feb-13 15:59N 40°36' W 074°12'0 0.0
2018-Feb-13 15:30N 40°36' W 074°12'0 0.0
2018-Feb-13 14:58N 40°36' W 074°12'0 0.0
2018-Feb-13 14:30N 40°36' W 074°12'0 0.0
2018-Feb-13 14:00N 40°36' W 074°12'0 0.0
2018-Feb-13 13:30N 40°36' W 074°12'0 0.0
2018-Feb-13 12:59N 40°36' W 074°12'0 0.0
2018-Feb-13 12:29N 40°36' W 074°12'0 0.0
2018-Feb-13 12:00N 40°36' W 074°12'0 0.0
2018-Feb-13 11:29N 40°36' W 074°12'0 0.0
2018-Feb-13 10:59N 40°36' W 074°12'0 0.0
2018-Feb-13 10:30N 40°36' W 074°12'0 0.0
2018-Feb-13 10:00N 40°36' W 074°12'0 0.0
2018-Feb-13 09:30N 40°36' W 074°12'0 0.0
2018-Feb-13 09:00N 40°36' W 074°12'0 0.0
2018-Feb-13 08:29N 40°36' W 074°12'0 0.0
2018-Feb-13 08:00N 40°36' W 074°12'0 0.0
2018-Feb-13 07:30N 40°36' W 074°12'0 0.0
2018-Feb-13 07:00N 40°36' W 074°12'0 0.0
2018-Feb-13 06:30N 40°36' W 074°12'0 0.0
2018-Feb-13 06:00N 40°36' W 074°12'0 0.0
2018-Feb-13 05:29N 40°36' W 074°12'0 0.0
2018-Feb-13 05:00N 40°36' W 074°12'0 0.0
2018-Feb-13 04:28N 40°36' W 074°12'0 0.0
2018-Feb-13 03:59N 40°36' W 074°12'0 0.0
2018-Feb-13 03:30N 40°36' W 074°12'0 0.0
2018-Feb-13 03:00N 40°36' W 074°12'0 0.0
2018-Feb-13 02:30N 40°36' W 074°12'0 0.0
2018-Feb-13 02:00N 40°36' W 074°12'0 0.0
2018-Feb-13 01:30N 40°36' W 074°12'0 0.0
2018-Feb-13 01:00N 40°36' W 074°12'0 0.0
2018-Feb-13 00:30N 40°36' W 074°12'0 0.0
2018-Feb-13 00:00N 40°36' W 074°12'0 0.0
2018-Feb-12 23:30N 40°36' W 074°12'0 0.0
2018-Feb-12 23:00N 40°36' W 074°12'0 0.0
2018-Feb-12 22:26N 40°36' W 074°12'0 0.0
2018-Feb-12 21:59N 40°36' W 074°12'0 0.0
2018-Feb-12 21:29N 40°36' W 074°12'0 0.0
2018-Feb-12 21:00N 40°36' W 074°12'0 0.0
2018-Feb-12 20:29N 40°36' W 074°12'0 0.0
2018-Feb-12 20:00N 40°36' W 074°12'0 0.0
2018-Feb-12 19:25N 40°36' W 074°12'0 0.0
2018-Feb-12 19:00N 40°36' W 074°12'0 0.0
2018-Feb-12 18:29N 40°36' W 074°12'0 0.0
2018-Feb-12 17:59N 40°36' W 074°12'1 1.7
2018-Feb-12 17:30N 40°37' W 074°12'3 5.8
2018-Feb-12 17:00N 40°39' W 074°09'0 0.6
2018-Feb-12 16:30N 40°38' W 074°09'0 0.0
2018-Feb-12 15:59N 40°38' W 074°09'0 0.0
2018-Feb-12 15:30N 40°38' W 074°09'0 0.0
2018-Feb-12 15:00N 40°38' W 074°09'0 0.0
2018-Feb-12 14:30N 40°38' W 074°09'0 0.0
2018-Feb-12 14:00N 40°38' W 074°09'0 0.0
2018-Feb-12 13:30N 40°38' W 074°09'0 0.0
2018-Feb-12 13:00N 40°38' W 074°09'0 0.0
2018-Feb-12 12:30N 40°38' W 074°09'0 0.0
2018-Feb-12 12:00N 40°38' W 074°09'0 0.0
2018-Feb-12 11:30N 40°38' W 074°09'0 0.0
2018-Feb-12 11:00N 40°38' W 074°09'0 0.0
2018-Feb-12 10:30N 40°38' W 074°09'0 0.0
2018-Feb-12 10:00N 40°38' W 074°09'0 0.0
2018-Feb-12 09:30N 40°38' W 074°09'0 0.0
2018-Feb-12 09:00N 40°38' W 074°09'0 0.0
2018-Feb-12 08:30N 40°38' W 074°09'0 0.0
2018-Feb-12 08:00N 40°38' W 074°09'0 0.0
2018-Feb-12 07:30N 40°38' W 074°09'0 0.0
2018-Feb-12 07:00N 40°38' W 074°09'0 0.0
2018-Feb-12 06:30N 40°38' W 074°09'0 0.0
2018-Feb-12 06:00N 40°38' W 074°09'0 0.0
2018-Feb-12 05:30N 40°38' W 074°09'0 0.0
2018-Feb-12 04:59N 40°38' W 074°09'0 0.6
2018-Feb-12 04:31N 40°39' W 074°09'2 3.9
2018-Feb-12 04:00N 40°38' W 074°12'0 0.0
2018-Feb-12 03:30N 40°38' W 074°12'0 0.0
2018-Feb-12 03:00N 40°38' W 074°12'0 0.0
2018-Feb-12 02:29N 40°38' W 074°12'0 0.0
2018-Feb-12 02:00N 40°38' W 074°12'0 0.0
2018-Feb-12 01:30N 40°38' W 074°12'0 0.0
2018-Feb-12 01:00N 40°38' W 074°12'0 0.0
2018-Feb-12 00:29N 40°38' W 074°12'0 0.0
2018-Feb-12 00:00N 40°38' W 074°12'0 0.2
2018-Feb-11 23:30N 40°38' W 074°12'2 4.1
2018-Feb-11 23:00N 40°39' W 074°09'2 3.1
2018-Feb-11 22:30N 40°39' W 074°07'2 3.9
2018-Feb-11 22:00N 40°38' W 074°09'0 0.8
2018-Feb-11 21:30N 40°39' W 074°10'0 0.0
2018-Feb-11 21:00N 40°39' W 074°10'0 0.0
2018-Feb-11 20:30N 40°39' W 074°10'0 0.0
2018-Feb-11 20:00N 40°39' W 074°10'0 0.0
2018-Feb-11 19:30N 40°39' W 074°10'0 0.0
2018-Feb-11 19:00N 40°39' W 074°10'0 0.0
2018-Feb-11 18:30N 40°39' W 074°10'0 0.0
2018-Feb-11 18:00N 40°39' W 074°10'0 0.0
2018-Feb-11 17:30N 40°39' W 074°10'0 0.0
2018-Feb-11 17:01N 40°39' W 074°10'0 0.8
2018-Feb-11 16:30N 40°38' W 074°09'1 1.1
2018-Feb-11 16:00N 40°39' W 074°09'5 9.0
2018-Feb-11 15:30N 40°40' W 074°03'1 1.0
2018-Feb-11 15:00N 40°39' W 074°03'0 0.0
2018-Feb-11 14:30N 40°39' W 074°03'0 0.0
2018-Feb-11 14:00N 40°39' W 074°03'0 0.1
2018-Feb-11 13:30N 40°39' W 074°03'0 0.0
2018-Feb-11 13:00N 40°39' W 074°03'0 0.1
2018-Feb-11 12:30N 40°39' W 074°03'0 0.2
2018-Feb-11 12:00N 40°39' W 074°03'0 0.1
2018-Feb-11 11:30N 40°39' W 074°02'0 0.0
2018-Feb-11 11:00N 40°39' W 074°02'0 0.0
2018-Feb-11 10:30N 40°39' W 074°02'0 0.0
2018-Feb-11 10:00N 40°39' W 074°02'0 0.0
2018-Feb-11 09:30N 40°39' W 074°02'0 0.0
2018-Feb-11 09:00N 40°39' W 074°02'0 0.0
2018-Feb-11 08:30N 40°39' W 074°02'0 0.1
2018-Feb-11 08:00N 40°39' W 074°02'0 0.2
2018-Feb-11 07:30N 40°39' W 074°02'0 0.1
2018-Feb-11 07:00N 40°39' W 074°02'0 0.1
2018-Feb-11 06:30N 40°39' W 074°02'0 0.0
2018-Feb-11 06:00N 40°39' W 074°03'0 0.0
2018-Feb-11 05:30N 40°39' W 074°03'0 0.0
2018-Feb-11 05:00N 40°39' W 074°03'0 0.0
2018-Feb-11 04:30N 40°39' W 074°03'0 0.0
2018-Feb-11 04:00N 40°39' W 074°03'0 0.0
2018-Feb-11 03:30N 40°39' W 074°03'0 0.0
2018-Feb-11 03:00N 40°39' W 074°03'0 0.0
2018-Feb-11 02:30N 40°39' W 074°03'0 0.0
2018-Feb-11 02:00N 40°39' W 074°03'0 0.0
2018-Feb-11 01:30N 40°39' W 074°03'0 0.0
2018-Feb-11 01:00N 40°39' W 074°03'0 0.0
2018-Feb-11 00:30N 40°39' W 074°03'0 0.0
2018-Feb-11 00:00N 40°39' W 074°03'0 0.2
2018-Feb-10 23:30N 40°39' W 074°02'0 0.1
2018-Feb-10 23:00N 40°39' W 074°02'0 0.1
2018-Feb-10 22:29N 40°39' W 074°02'0 0.0
2018-Feb-10 22:00N 40°39' W 074°02'0 0.2
2018-Feb-10 21:30N 40°39' W 074°02'0 0.1
2018-Feb-10 21:00N 40°39' W 074°03'0 0.1
2018-Feb-10 20:30N 40°39' W 074°03'0 0.1
2018-Feb-10 20:00N 40°39' W 074°02'0 0.1
2018-Feb-10 19:30N 40°39' W 074°03'0 0.0
2018-Feb-10 19:00N 40°39' W 074°03'0 0.0
2018-Feb-10 18:30N 40°39' W 074°02'0 0.0
2018-Feb-10 18:00N 40°39' W 074°03'0 0.0
2018-Feb-10 17:30N 40°39' W 074°03'0 0.0
2018-Feb-10 17:00N 40°39' W 074°03'0 0.0
2018-Feb-10 16:30N 40°39' W 074°03'0 0.0
2018-Feb-10 16:00N 40°39' W 074°03'0 0.0
2018-Feb-10 15:30N 40°39' W 074°03'0 0.0
2018-Feb-10 15:00N 40°39' W 074°03'0 0.0
2018-Feb-10 14:30N 40°39' W 074°02'0 0.0
2018-Feb-10 14:00N 40°39' W 074°03'0 0.0
2018-Feb-10 13:30N 40°39' W 074°03'0 0.1
2018-Feb-10 13:00N 40°39' W 074°03'0 0.1
2018-Feb-10 12:30N 40°39' W 074°03'0 0.0
2018-Feb-10 12:00N 40°39' W 074°03'0 0.0
2018-Feb-10 11:30N 40°39' W 074°03'0 0.2
2018-Feb-10 11:00N 40°39' W 074°03'0 0.2
2018-Feb-10 10:30N 40°39' W 074°02'0 0.0
2018-Feb-10 10:00N 40°39' W 074°02'0 0.1
2018-Feb-10 09:30N 40°39' W 074°02'0 0.0
2018-Feb-10 09:00N 40°39' W 074°02'0 0.0
2018-Feb-10 08:30N 40°39' W 074°02'0 0.0
2018-Feb-10 08:00N 40°39' W 074°02'0 0.1
2018-Feb-10 07:30N 40°39' W 074°02'0 0.1
2018-Feb-10 07:00N 40°39' W 074°02'0 0.0
2018-Feb-10 06:30N 40°39' W 074°02'0 0.1
2018-Feb-10 06:00N 40°39' W 074°02'0 0.1
2018-Feb-10 05:30N 40°39' W 074°02'0 0.0
2018-Feb-10 05:00N 40°39' W 074°02'0 0.0
2018-Feb-10 04:30N 40°39' W 074°02'0 0.0
2018-Feb-10 04:00N 40°39' W 074°03'0 0.0
2018-Feb-10 03:30N 40°39' W 074°02'0 0.0
2018-Feb-10 03:00N 40°39' W 074°02'0 0.0
2018-Feb-10 02:30N 40°39' W 074°02'0 0.0
2018-Feb-10 02:00N 40°39' W 074°03'0 0.2
2018-Feb-10 01:30N 40°39' W 074°03'0 0.1
2018-Feb-10 01:00N 40°39' W 074°03'0 0.2
2018-Feb-10 00:30N 40°39' W 074°03'0 0.1
2018-Feb-10 00:00N 40°39' W 074°03'0 0.0
2018-Feb-09 23:30N 40°39' W 074°03'0 0.0
2018-Feb-09 23:00N 40°39' W 074°03'0 0.0
2018-Feb-09 22:46N 40°39' W 074°03'0 0.0
2018-Feb-09 13:30N 40°39' W 074°02'0 0.0
2018-Feb-09 10:30N 40°39' W 074°02'0 0.1
2018-Feb-09 09:00N 40°39' W 074°02'0 0.0
2018-Feb-09 07:30N 40°39' W 074°02'0 0.0
2018-Feb-09 07:00N 40°39' W 074°02'0 0.1
2018-Feb-09 06:30N 40°39' W 074°02'2 1.3
2018-Feb-09 05:00N 40°41' W 074°01'4 8.0
2018-Feb-09 04:30N 40°44' W 073°58'  
Track history (hours):
 
Tides and Currents Weather Stations Pressure Air Temp Water Temp Dewpoint Dewpoint Depression Visibility Wind Speed Wind Dir Waves Ship Positions

Barry Silverton

Owner: Harley Marine Services, Inc, Seattle, WA. More information available from US FCC via Universal Licensing System and Coast Guard Vessel Documentation Center.

Last reported at 2018-Feb-18 23:58 UTC. Time now 2018-Feb-19 00:10 UTC.
Position N 40°36' W 074°12'.

Length 178 m; draft 4.3 m.

Type: Ship. MMSI: 367677130.

Date/timePositionNaut miles runAvg speedWind from/ knotsBaromVisibWave heightAir tempDewpointWater temp
2018-Feb-18 23:58N 40°36' W 074°12'0 0.0
2018-Feb-18 23:28N 40°36' W 074°12'0 0.0
2018-Feb-18 22:59N 40°36' W 074°12'0 0.0
2018-Feb-18 22:27N 40°36' W 074°12'0 0.0
2018-Feb-18 22:00N 40°36' W 074°12'0 0.0
2018-Feb-18 21:30N 40°36' W 074°12'0 0.0
2018-Feb-18 21:00N 40°36' W 074°12'0 0.0
2018-Feb-18 20:30N 40°36' W 074°12'0 0.0
2018-Feb-18 19:59N 40°36' W 074°12'0 0.0
2018-Feb-18 19:29N 40°36' W 074°12'0 0.0
2018-Feb-18 19:00N 40°36' W 074°12'0 0.0
2018-Feb-18 18:30N 40°36' W 074°12'0 0.1
2018-Feb-18 18:00N 40°36' W 074°12'3 5.3
2018-Feb-18 17:30N 40°39' W 074°11'4 8.5
2018-Feb-18 17:00N 40°39' W 074°06'5 9.2
2018-Feb-18 16:30N 40°41' W 074°01'4 7.5
2018-Feb-18 16:00N 40°45' W 073°58'4 7.5
2018-Feb-18 15:30N 40°47' W 073°55'3 5.2
2018-Feb-18 15:00N 40°48' W 073°52'3 6.4
2018-Feb-18 14:30N 40°48' W 073°47'4 8.0
2018-Feb-18 13:59N 40°52' W 073°45'4 7.8
2018-Feb-18 13:29N 40°54' W 073°41'4 7.6
2018-Feb-18 12:55N 40°56' W 073°36'41 6.4
2018-Feb-18 06:34N 41°06' W 072°44'2 6.3
2018-Feb-18 06:17N 41°07' W 072°41'2 6.4
2018-Feb-18 06:00N 41°07' W 072°39'4 6.1
2018-Feb-18 05:25N 41°08' W 072°34'3 6.8
2018-Feb-18 05:00N 41°08' W 072°31'4 7.2
2018-Feb-18 04:30N 41°09' W 072°26'4 8.7
2018-Feb-18 04:00N 41°11' W 072°21'5 9.5
2018-Feb-18 03:30N 41°13' W 072°15'612.0
2018-Feb-18 03:00N 41°14' W 072°07'90 7.7
2018-Feb-17 15:27N 42°12' W 070°36'3 7.7
2018-Feb-17 15:00N 42°15' W 070°39'4 7.6
2018-Feb-17 14:30N 42°18' W 070°42'4 7.3
2018-Feb-17 14:00N 42°19' W 070°46'4 7.5
2018-Feb-17 13:30N 42°19' W 070°52'3 6.0
2018-Feb-17 12:57N 42°18' W 070°55'3 7.5
2018-Feb-17 12:30N 42°15' W 070°58'1 1.1
2018-Feb-17 11:51N 42°14' W 070°58'0 0.0
2018-Feb-17 04:16N 42°14' W 070°58'0 0.0
2018-Feb-17 00:27N 42°14' W 070°58'0 0.0
2018-Feb-16 21:28N 42°14' W 070°58'0 0.0
2018-Feb-16 20:52N 42°14' W 070°58'0 0.0
2018-Feb-16 20:27N 42°14' W 070°58'0 0.0
2018-Feb-16 19:59N 42°14' W 070°58'0 0.0
2018-Feb-16 19:26N 42°14' W 070°58'0 0.0
2018-Feb-16 18:58N 42°14' W 070°58'0 0.0
2018-Feb-16 18:24N 42°14' W 070°58'0 0.0
2018-Feb-16 17:44N 42°14' W 070°58'0 0.0
2018-Feb-16 17:25N 42°14' W 070°58'0 0.0
2018-Feb-16 16:56N 42°14' W 070°58'0 0.0
2018-Feb-16 16:29N 42°14' W 070°58'0 0.0
2018-Feb-16 16:00N 42°14' W 070°58'0 0.0
2018-Feb-16 15:30N 42°14' W 070°58'0 0.0
2018-Feb-16 15:00N 42°14' W 070°58'0 0.0
2018-Feb-16 14:30N 42°14' W 070°58'0 0.0
2018-Feb-16 13:59N 42°14' W 070°58'0 0.0
2018-Feb-16 13:29N 42°14' W 070°58'0 0.0
2018-Feb-16 13:00N 42°14' W 070°58'0 0.0
2018-Feb-16 08:58N 42°14' W 070°58'0 0.0
2018-Feb-16 08:30N 42°14' W 070°58'0 0.0
2018-Feb-16 07:59N 42°14' W 070°58'0 0.0
2018-Feb-16 07:30N 42°14' W 070°58'0 0.0
2018-Feb-16 06:56N 42°14' W 070°58'0 0.0
2018-Feb-16 06:24N 42°14' W 070°58'0 0.0
2018-Feb-16 05:56N 42°14' W 070°58'0 0.0
2018-Feb-16 05:29N 42°14' W 070°58'0 0.0
2018-Feb-16 04:44N 42°14' W 070°58'0 0.0
2018-Feb-16 04:29N 42°14' W 070°58'0 0.0
2018-Feb-16 04:00N 42°14' W 070°58'0 0.0
2018-Feb-16 03:20N 42°14' W 070°58'0 0.0
2018-Feb-16 03:00N 42°14' W 070°58'0 0.0
2018-Feb-16 02:17N 42°14' W 070°58'0 0.0
2018-Feb-16 01:55N 42°14' W 070°58'0 0.0
2018-Feb-16 01:24N 42°14' W 070°58'0 0.0
2018-Feb-16 01:00N 42°14' W 070°58'0 0.0
2018-Feb-16 00:30N 42°14' W 070°58'0 0.0
2018-Feb-16 00:00N 42°14' W 070°58'0 0.0
2018-Feb-15 22:22N 42°14' W 070°58'0 0.0
2018-Feb-15 21:53N 42°14' W 070°58'0 0.0
2018-Feb-15 21:30N 42°14' W 070°58'0 0.0
2018-Feb-15 20:41N 42°14' W 070°58'0 0.0
2018-Feb-15 20:24N 42°14' W 070°58'0 0.0
2018-Feb-15 19:36N 42°14' W 070°58'0 0.0
2018-Feb-15 19:22N 42°14' W 070°58'0 0.0
2018-Feb-15 18:59N 42°14' W 070°58'0 0.0
2018-Feb-15 18:30N 42°14' W 070°58'0 0.0
2018-Feb-15 17:55N 42°14' W 070°58'0 0.0
2018-Feb-15 17:30N 42°14' W 070°58'0 0.0
2018-Feb-15 16:38N 42°14' W 070°58'0 0.0
2018-Feb-15 16:24N 42°14' W 070°58'0 0.0
2018-Feb-15 15:22N 42°14' W 070°58'0 0.0
2018-Feb-15 14:58N 42°14' W 070°58'3 1.7
2018-Feb-15 13:18N 42°16' W 070°56'1 2.8
2018-Feb-15 13:00N 42°17' W 070°56'2 3.5
2018-Feb-15 12:25N 42°19' W 070°54'3 6.2
2018-Feb-15 11:59N 42°20' W 070°51'0 0.2
2018-Feb-15 11:25N 42°20' W 070°51'0 0.0
2018-Feb-15 09:13N 42°20' W 070°51'0 0.0
2018-Feb-15 08:50N 42°20' W 070°51'0 0.1
2018-Feb-15 08:30N 42°20' W 070°51'0 0.0
2018-Feb-15 08:00N 42°20' W 070°51'0 0.0
2018-Feb-15 07:30N 42°20' W 070°51'0 0.0
2018-Feb-15 03:56N 42°20' W 070°51'0 0.1
2018-Feb-15 03:30N 42°20' W 070°51'0 0.0
2018-Feb-15 03:00N 42°20' W 070°51'0 0.0
2018-Feb-15 02:30N 42°20' W 070°51'0 0.1
2018-Feb-15 02:00N 42°20' W 070°51'0 0.1
2018-Feb-15 01:15N 42°20' W 070°51'0 0.1
2018-Feb-15 00:53N 42°20' W 070°51'0 0.1
2018-Feb-15 00:28N 42°20' W 070°51'0 0.4
2018-Feb-14 23:58N 42°20' W 070°51'4 7.9
2018-Feb-14 23:30N 42°19' W 070°46'5 9.7
2018-Feb-14 23:00N 42°16' W 070°40'5 9.6
2018-Feb-14 22:27N 42°12' W 070°35'4 9.6
2018-Feb-14 22:00N 42°09' W 070°33'90 7.2
2018-Feb-14 09:36N 41°14' W 072°07'1 9.7
2018-Feb-14 09:30N 41°14' W 072°08'5 9.9
2018-Feb-14 09:00N 41°13' W 072°15'611.4
2018-Feb-14 08:30N 41°11' W 072°22'611.4
2018-Feb-14 08:00N 41°09' W 072°29'510.9
2018-Feb-14 07:30N 41°08' W 072°36'510.8
2018-Feb-14 07:00N 41°06' W 072°43'48 9.9
2018-Feb-14 02:06N 40°52' W 073°44'1 9.6
2018-Feb-14 02:00N 40°51' W 073°45'4 8.2
2018-Feb-14 01:30N 40°48' W 073°48'5 9.1
2018-Feb-14 01:00N 40°48' W 073°55'4 9.0
2018-Feb-14 00:30N 40°44' W 073°58'4 7.8
2018-Feb-14 00:00N 40°41' W 074°01'4 7.5
2018-Feb-13 23:30N 40°38' W 074°03'0 0.4
2018-Feb-13 23:00N 40°38' W 074°04'0 0.2
2018-Feb-13 22:30N 40°38' W 074°03'0 0.0
2018-Feb-13 22:00N 40°38' W 074°03'0 0.1
2018-Feb-13 21:30N 40°38' W 074°03'0 0.1
2018-Feb-13 21:00N 40°38' W 074°03'2 3.1
2018-Feb-13 20:30N 40°39' W 074°04'3 6.4
2018-Feb-13 20:00N 40°38' W 074°09'3 6.4
2018-Feb-13 19:29N 40°37' W 074°12'1 0.4
2018-Feb-13 17:54N 40°36' W 074°12'0 0.0
2018-Feb-13 17:29N 40°36' W 074°12'0 0.0
2018-Feb-13 16:57N 40°36' W 074°12'0 0.0
2018-Feb-13 16:29N 40°36' W 074°12'0 0.0
2018-Feb-13 15:59N 40°36' W 074°12'0 0.0
2018-Feb-13 15:30N 40°36' W 074°12'0 0.0
2018-Feb-13 14:58N 40°36' W 074°12'0 0.0
2018-Feb-13 14:30N 40°36' W 074°12'0 0.0
2018-Feb-13 14:00N 40°36' W 074°12'0 0.0
2018-Feb-13 13:30N 40°36' W 074°12'0 0.0
2018-Feb-13 12:59N 40°36' W 074°12'0 0.0
2018-Feb-13 12:29N 40°36' W 074°12'0 0.0
2018-Feb-13 12:00N 40°36' W 074°12'0 0.0
2018-Feb-13 11:29N 40°36' W 074°12'0 0.0
2018-Feb-13 10:59N 40°36' W 074°12'0 0.0
2018-Feb-13 10:30N 40°36' W 074°12'0 0.0
2018-Feb-13 10:00N 40°36' W 074°12'0 0.0
2018-Feb-13 09:30N 40°36' W 074°12'0 0.0
2018-Feb-13 09:00N 40°36' W 074°12'0 0.0
2018-Feb-13 08:29N 40°36' W 074°12'0 0.0
2018-Feb-13 08:00N 40°36' W 074°12'0 0.0
2018-Feb-13 07:30N 40°36' W 074°12'0 0.0
2018-Feb-13 07:00N 40°36' W 074°12'0 0.0
2018-Feb-13 06:30N 40°36' W 074°12'0 0.0
2018-Feb-13 06:00N 40°36' W 074°12'0 0.0
2018-Feb-13 05:29N 40°36' W 074°12'0 0.0
2018-Feb-13 05:00N 40°36' W 074°12'0 0.0
2018-Feb-13 04:28N 40°36' W 074°12'0 0.0
2018-Feb-13 03:59N 40°36' W 074°12'0 0.0
2018-Feb-13 03:30N 40°36' W 074°12'0 0.0
2018-Feb-13 03:00N 40°36' W 074°12'0 0.0
2018-Feb-13 02:30N 40°36' W 074°12'0 0.0
2018-Feb-13 02:00N 40°36' W 074°12'0 0.0
2018-Feb-13 01:30N 40°36' W 074°12'0 0.0
2018-Feb-13 01:00N 40°36' W 074°12'0 0.0
2018-Feb-13 00:30N 40°36' W 074°12'0 0.0
2018-Feb-13 00:00N 40°36' W 074°12'0 0.0
2018-Feb-12 23:30N 40°36' W 074°12'0 0.0
2018-Feb-12 23:00N 40°36' W 074°12'0 0.0
2018-Feb-12 22:26N 40°36' W 074°12'0 0.0
2018-Feb-12 21:59N 40°36' W 074°12'0 0.0
2018-Feb-12 21:29N 40°36' W 074°12'0 0.0
2018-Feb-12 21:00N 40°36' W 074°12'0 0.0
2018-Feb-12 20:29N 40°36' W 074°12'0 0.0
2018-Feb-12 20:00N 40°36' W 074°12'0 0.0
2018-Feb-12 19:25N 40°36' W 074°12'0 0.0
2018-Feb-12 19:00N 40°36' W 074°12'0 0.0
2018-Feb-12 18:29N 40°36' W 074°12'0 0.0
2018-Feb-12 17:59N 40°36' W 074°12'1 1.7
2018-Feb-12 17:30N 40°37' W 074°12'3 5.8
2018-Feb-12 17:00N 40°39' W 074°09'0 0.6
2018-Feb-12 16:30N 40°38' W 074°09'0 0.0
2018-Feb-12 15:59N 40°38' W 074°09'0 0.0
2018-Feb-12 15:30N 40°38' W 074°09'0 0.0
2018-Feb-12 15:00N 40°38' W 074°09'0 0.0
2018-Feb-12 14:30N 40°38' W 074°09'0 0.0
2018-Feb-12 14:00N 40°38' W 074°09'0 0.0
2018-Feb-12 13:30N 40°38' W 074°09'0 0.0
2018-Feb-12 13:00N 40°38' W 074°09'0 0.0
2018-Feb-12 12:30N 40°38' W 074°09'0 0.0
2018-Feb-12 12:00N 40°38' W 074°09'0 0.0
2018-Feb-12 11:30N 40°38' W 074°09'0 0.0
2018-Feb-12 11:00N 40°38' W 074°09'0 0.0
2018-Feb-12 10:30N 40°38' W 074°09'0 0.0
2018-Feb-12 10:00N 40°38' W 074°09'0 0.0
2018-Feb-12 09:30N 40°38' W 074°09'0 0.0
2018-Feb-12 09:00N 40°38' W 074°09'0 0.0
2018-Feb-12 08:30N 40°38' W 074°09'0 0.0
2018-Feb-12 08:00N 40°38' W 074°09'0 0.0
2018-Feb-12 07:30N 40°38' W 074°09'0 0.0
2018-Feb-12 07:00N 40°38' W 074°09'0 0.0
2018-Feb-12 06:30N 40°38' W 074°09'0 0.0
2018-Feb-12 06:00N 40°38' W 074°09'0 0.0
2018-Feb-12 05:30N 40°38' W 074°09'0 0.0
2018-Feb-12 04:59N 40°38' W 074°09'0 0.6
2018-Feb-12 04:31N 40°39' W 074°09'2 3.9
2018-Feb-12 04:00N 40°38' W 074°12'0 0.0
2018-Feb-12 03:30N 40°38' W 074°12'0 0.0
2018-Feb-12 03:00N 40°38' W 074°12'0 0.0
2018-Feb-12 02:29N 40°38' W 074°12'0 0.0
2018-Feb-12 02:00N 40°38' W 074°12'0 0.0
2018-Feb-12 01:30N 40°38' W 074°12'0 0.0
2018-Feb-12 01:00N 40°38' W 074°12'0 0.0
2018-Feb-12 00:29N 40°38' W 074°12'0 0.0
2018-Feb-12 00:00N 40°38' W 074°12'0 0.2
2018-Feb-11 23:30N 40°38' W 074°12'2 4.1
2018-Feb-11 23:00N 40°39' W 074°09'2 3.1
2018-Feb-11 22:30N 40°39' W 074°07'2 3.9
2018-Feb-11 22:00N 40°38' W 074°09'0 0.8
2018-Feb-11 21:30N 40°39' W 074°10'0 0.0
2018-Feb-11 21:00N 40°39' W 074°10'0 0.0
2018-Feb-11 20:30N 40°39' W 074°10'0 0.0
2018-Feb-11 20:00N 40°39' W 074°10'0 0.0
2018-Feb-11 19:30N 40°39' W 074°10'0 0.0
2018-Feb-11 19:00N 40°39' W 074°10'0 0.0
2018-Feb-11 18:30N 40°39' W 074°10'0 0.0
2018-Feb-11 18:00N 40°39' W 074°10'0 0.0
2018-Feb-11 17:30N 40°39' W 074°10'0 0.0
2018-Feb-11 17:01N 40°39' W 074°10'0 0.8
2018-Feb-11 16:30N 40°38' W 074°09'1 1.1
2018-Feb-11 16:00N 40°39' W 074°09'5 9.0
2018-Feb-11 15:30N 40°40' W 074°03'1 1.0
2018-Feb-11 15:00N 40°39' W 074°03'0 0.0
2018-Feb-11 14:30N 40°39' W 074°03'0 0.0
2018-Feb-11 14:00N 40°39' W 074°03'0 0.1
2018-Feb-11 13:30N 40°39' W 074°03'0 0.0
2018-Feb-11 13:00N 40°39' W 074°03'0 0.1
2018-Feb-11 12:30N 40°39' W 074°03'0 0.2
2018-Feb-11 12:00N 40°39' W 074°03'0 0.1
2018-Feb-11 11:30N 40°39' W 074°02'0 0.0
2018-Feb-11 11:00N 40°39' W 074°02'0 0.0
2018-Feb-11 10:30N 40°39' W 074°02'0 0.0
2018-Feb-11 10:00N 40°39' W 074°02'0 0.0
2018-Feb-11 09:30N 40°39' W 074°02'0 0.0
2018-Feb-11 09:00N 40°39' W 074°02'0 0.0
2018-Feb-11 08:30N 40°39' W 074°02'0 0.1
2018-Feb-11 08:00N 40°39' W 074°02'0 0.2
2018-Feb-11 07:30N 40°39' W 074°02'0 0.1
2018-Feb-11 07:00N 40°39' W 074°02'0 0.1
2018-Feb-11 06:30N 40°39' W 074°02'0 0.0
2018-Feb-11 06:00N 40°39' W 074°03'0 0.0
2018-Feb-11 05:30N 40°39' W 074°03'0 0.0
2018-Feb-11 05:00N 40°39' W 074°03'0 0.0
2018-Feb-11 04:30N 40°39' W 074°03'0 0.0
2018-Feb-11 04:00N 40°39' W 074°03'0 0.0
2018-Feb-11 03:30N 40°39' W 074°03'0 0.0
2018-Feb-11 03:00N 40°39' W 074°03'0 0.0
2018-Feb-11 02:30N 40°39' W 074°03'0 0.0
2018-Feb-11 02:00N 40°39' W 074°03'0 0.0
2018-Feb-11 01:30N 40°39' W 074°03'0 0.0
2018-Feb-11 01:00N 40°39' W 074°03'0 0.0
2018-Feb-11 00:30N 40°39' W 074°03'0 0.0
2018-Feb-11 00:00N 40°39' W 074°03'0 0.2
2018-Feb-10 23:30N 40°39' W 074°02'0 0.1
2018-Feb-10 23:00N 40°39' W 074°02'0 0.1
2018-Feb-10 22:29N 40°39' W 074°02'0 0.0
2018-Feb-10 22:00N 40°39' W 074°02'0 0.2
2018-Feb-10 21:30N 40°39' W 074°02'0 0.1
2018-Feb-10 21:00N 40°39' W 074°03'0 0.1
2018-Feb-10 20:30N 40°39' W 074°03'0 0.1
2018-Feb-10 20:00N 40°39' W 074°02'0 0.1
2018-Feb-10 19:30N 40°39' W 074°03'0 0.0
2018-Feb-10 19:00N 40°39' W 074°03'0 0.0
2018-Feb-10 18:30N 40°39' W 074°02'0 0.0
2018-Feb-10 18:00N 40°39' W 074°03'0 0.0
2018-Feb-10 17:30N 40°39' W 074°03'0 0.0
2018-Feb-10 17:00N 40°39' W 074°03'0 0.0
2018-Feb-10 16:30N 40°39' W 074°03'0 0.0
2018-Feb-10 16:00N 40°39' W 074°03'0 0.0
2018-Feb-10 15:30N 40°39' W 074°03'0 0.0
2018-Feb-10 15:00N 40°39' W 074°03'0 0.0
2018-Feb-10 14:30N 40°39' W 074°02'0 0.0
2018-Feb-10 14:00N 40°39' W 074°03'0 0.0
2018-Feb-10 13:30N 40°39' W 074°03'0 0.1
2018-Feb-10 13:00N 40°39' W 074°03'0 0.1
2018-Feb-10 12:30N 40°39' W 074°03'0 0.0
2018-Feb-10 12:00N 40°39' W 074°03'0 0.0
2018-Feb-10 11:30N 40°39' W 074°03'0 0.2
2018-Feb-10 11:00N 40°39' W 074°03'0 0.2
2018-Feb-10 10:30N 40°39' W 074°02'0 0.0
2018-Feb-10 10:00N 40°39' W 074°02'0 0.1
2018-Feb-10 09:30N 40°39' W 074°02'0 0.0
2018-Feb-10 09:00N 40°39' W 074°02'0 0.0
2018-Feb-10 08:30N 40°39' W 074°02'0 0.0
2018-Feb-10 08:00N 40°39' W 074°02'0 0.1
2018-Feb-10 07:30N 40°39' W 074°02'0 0.1
2018-Feb-10 07:00N 40°39' W 074°02'0 0.0
2018-Feb-10 06:30N 40°39' W 074°02'0 0.1
2018-Feb-10 06:00N 40°39' W 074°02'0 0.1
2018-Feb-10 05:30N 40°39' W 074°02'0 0.0
2018-Feb-10 05:00N 40°39' W 074°02'0 0.0
2018-Feb-10 04:30N 40°39' W 074°02'0 0.0
2018-Feb-10 04:00N 40°39' W 074°03'0 0.0
2018-Feb-10 03:30N 40°39' W 074°02'0 0.0
2018-Feb-10 03:00N 40°39' W 074°02'0 0.0
2018-Feb-10 02:30N 40°39' W 074°02'0 0.0
2018-Feb-10 02:00N 40°39' W 074°03'0 0.2
2018-Feb-10 01:30N 40°39' W 074°03'0 0.1
2018-Feb-10 01:00N 40°39' W 074°03'0 0.2
2018-Feb-10 00:30N 40°39' W 074°03'0 0.1
2018-Feb-10 00:00N 40°39' W 074°03'0 0.0
2018-Feb-09 23:30N 40°39' W 074°03'0 0.0
2018-Feb-09 23:00N 40°39' W 074°03'0 0.0
2018-Feb-09 22:46N 40°39' W 074°03'0 0.0
2018-Feb-09 13:30N 40°39' W 074°02'0 0.0
2018-Feb-09 10:30N 40°39' W 074°02'0 0.1
2018-Feb-09 09:00N 40°39' W 074°02'0 0.0
2018-Feb-09 07:30N 40°39' W 074°02'0 0.0
2018-Feb-09 07:00N 40°39' W 074°02'0 0.1
2018-Feb-09 06:30N 40°39' W 074°02'2 1.3
2018-Feb-09 05:00N 40°41' W 074°01'4 8.0
2018-Feb-09 04:30N 40°44' W 073°58'  

Dump ship's entire track history